createdAt,value
2023-01-19T00:02:50.964Z,1.34
2023-01-19T00:05:04.211Z,1.31
2023-01-19T00:07:16.844Z,1.28
2023-01-19T00:09:33.591Z,1.28
2023-01-19T00:11:45.551Z,1.28
2023-01-19T00:13:58.074Z,1.30
2023-01-19T00:16:10.108Z,1.28
2023-01-19T00:18:22.042Z,1.30
2023-01-19T00:20:35.648Z,1.30
2023-01-19T00:22:51.024Z,1.31
2023-01-19T00:25:03.758Z,1.31
2023-01-19T00:27:15.804Z,1.32
2023-01-19T00:29:31.001Z,1.32
2023-01-19T00:31:43.472Z,1.32
2023-01-19T00:33:55.756Z,1.31
2023-01-19T00:36:08.447Z,1.30
2023-01-19T00:38:20.132Z,1.30
2023-01-19T00:40:32.333Z,1.32
2023-01-19T00:42:44.763Z,1.32
2023-01-19T00:44:57.401Z,1.33
2023-01-19T00:47:09.954Z,1.34
2023-01-19T00:49:21.946Z,1.35
2023-01-19T00:51:33.741Z,1.36
2023-01-19T00:53:45.324Z,1.37
2023-01-19T00:55:57.213Z,1.38
2023-01-19T00:58:08.923Z,1.39
2023-01-19T01:00:22.249Z,1.40
2023-01-19T01:02:34.398Z,1.40
2023-01-19T01:04:46.430Z,1.40
2023-01-19T01:06:58.419Z,1.41
2023-01-19T01:09:13.161Z,1.42
2023-01-19T01:11:25.375Z,1.42
2023-01-19T01:13:37.064Z,1.44
2023-01-19T01:15:51.311Z,1.46
2023-01-19T01:18:03.104Z,1.46
2023-01-19T01:20:18.022Z,1.46
2023-01-19T01:22:29.853Z,1.47
2023-01-19T01:24:41.440Z,1.47
2023-01-19T01:26:53.132Z,1.49
2023-01-19T01:29:06.657Z,1.50
2023-01-19T01:31:18.870Z,1.50
2023-01-19T01:33:39.996Z,1.49
2023-01-19T01:35:54.011Z,1.46
2023-01-19T01:38:06.004Z,1.44
2023-01-19T01:40:19.327Z,1.43
2023-01-19T01:42:32.458Z,1.44
2023-01-19T01:44:52.078Z,1.45
2023-01-19T01:47:04.938Z,1.44
2023-01-19T01:49:17.956Z,1.45
2023-01-19T01:51:39.168Z,1.42
2023-01-19T01:54:01.403Z,1.38
2023-01-19T01:56:17.823Z,1.36
2023-01-19T01:58:31.866Z,1.34
2023-01-19T02:01:03.062Z,1.33
2023-01-19T02:03:15.944Z,1.33
2023-01-19T02:05:33.733Z,1.34
2023-01-19T02:08:26.386Z,1.33
2023-01-19T02:10:58.862Z,1.34
2023-01-19T02:13:23.261Z,1.36
2023-01-19T02:15:35.339Z,1.36
2023-01-19T02:17:48.150Z,1.37
2023-01-19T02:20:00.048Z,1.36
2023-01-19T02:22:24.840Z,1.36
2023-01-19T02:24:37.968Z,1.36
2023-01-19T02:26:51.001Z,1.36
2023-01-19T02:29:07.591Z,1.35
2023-01-19T02:31:19.988Z,1.35
2023-01-19T02:33:32.187Z,1.35
2023-01-19T02:35:46.026Z,1.34
2023-01-19T02:37:58.856Z,1.34
2023-01-19T02:40:14.102Z,1.33
2023-01-19T02:42:31.122Z,1.31
2023-01-19T02:44:47.428Z,1.30
2023-01-19T02:46:59.618Z,1.29
2023-01-19T02:49:11.829Z,1.28
2023-01-19T02:51:24.939Z,1.28
2023-01-19T02:54:04.995Z,1.28
2023-01-19T02:56:36.340Z,1.27
2023-01-19T02:59:01.543Z,1.26
2023-01-19T03:01:26.857Z,1.25
2023-01-19T03:04:00.040Z,1.23
2023-01-19T03:06:28.119Z,1.20
2023-01-19T03:09:15.746Z,1.18
2023-01-19T03:11:35.301Z,1.15
2023-01-19T03:14:00.979Z,1.13
2023-01-19T03:16:22.833Z,1.10
2023-01-19T03:18:37.310Z,1.09
2023-01-19T03:20:53.545Z,1.09
2023-01-19T03:23:08.879Z,1.08
2023-01-19T03:25:23.247Z,1.08
2023-01-19T03:27:41.014Z,1.08
2023-01-19T03:30:19.882Z,1.08
2023-01-19T03:32:37.427Z,1.08
2023-01-19T03:34:51.664Z,1.09
2023-01-19T03:37:05.491Z,1.10
2023-01-19T03:39:23.224Z,1.11
2023-01-19T03:41:38.461Z,1.11
2023-01-19T03:43:52.638Z,1.15
2023-01-19T03:46:06.115Z,1.17
2023-01-19T03:48:18.264Z,1.18
2023-01-19T03:50:31.082Z,1.20
2023-01-19T03:52:43.073Z,1.22
2023-01-19T03:54:54.968Z,1.23
2023-01-19T03:57:07.372Z,1.23
2023-01-19T03:59:20.187Z,1.23
2023-01-19T04:01:33.210Z,1.21
2023-01-19T04:03:47.456Z,1.22
2023-01-19T04:05:59.546Z,1.23
2023-01-19T04:08:12.159Z,1.23
2023-01-19T04:10:24.463Z,1.24
2023-01-19T04:12:36.455Z,1.25
2023-01-19T04:14:48.038Z,1.25
2023-01-19T04:17:00.343Z,1.24
2023-01-19T04:19:12.540Z,1.24
2023-01-19T04:21:24.638Z,1.23
2023-01-19T04:23:37.041Z,1.22
2023-01-19T04:25:49.342Z,1.23
2023-01-19T04:28:01.341Z,1.21
2023-01-19T04:30:13.561Z,1.21
2023-01-19T04:32:25.227Z,1.20
2023-01-19T04:34:36.767Z,1.20
2023-01-19T04:36:51.277Z,1.20
2023-01-19T04:39:03.057Z,1.21
2023-01-19T04:41:15.043Z,1.21
2023-01-19T04:43:26.838Z,1.22
2023-01-19T04:45:38.729Z,1.22
2023-01-19T04:47:50.825Z,1.23
2023-01-19T04:50:02.520Z,1.21
2023-01-19T04:52:14.406Z,1.19
2023-01-19T04:54:27.230Z,1.17
2023-01-19T04:56:40.954Z,1.16
2023-01-19T04:58:52.848Z,1.15
2023-01-19T05:01:09.245Z,1.15
2023-01-19T05:03:20.980Z,1.13
2023-01-19T05:05:33.461Z,1.14
2023-01-19T05:07:45.540Z,1.14
2023-01-19T05:09:57.338Z,1.13
2023-01-19T05:12:09.833Z,1.15
2023-01-19T05:14:21.827Z,1.18
2023-01-19T05:16:34.854Z,1.20
2023-01-19T05:18:47.153Z,1.22
2023-01-19T05:20:58.630Z,1.23
2023-01-19T05:23:10.322Z,1.26
2023-01-19T05:25:22.033Z,1.26
2023-01-19T05:27:33.899Z,1.26
2023-01-19T05:29:45.587Z,1.26
2023-01-19T05:31:58.322Z,1.27
2023-01-19T05:34:12.443Z,1.26
2023-01-19T05:36:24.540Z,1.25
2023-01-19T05:38:36.534Z,1.24
2023-01-19T05:40:48.937Z,1.24
2023-01-19T05:43:05.204Z,1.25
2023-01-19T05:45:17.535Z,1.25
2023-01-19T05:47:30.156Z,1.25
2023-01-19T05:49:42.141Z,1.25
2023-01-19T05:51:53.732Z,1.25
2023-01-19T05:54:06.752Z,1.25
2023-01-19T05:56:18.634Z,1.25
2023-01-19T05:58:31.567Z,1.23
2023-01-19T06:00:43.242Z,1.21
2023-01-19T06:02:55.514Z,1.22
2023-01-19T06:05:08.360Z,1.23
2023-01-19T06:07:20.041Z,1.23
2023-01-19T06:09:32.737Z,1.24
2023-01-19T06:11:46.087Z,1.26
2023-01-19T06:13:57.869Z,1.27
2023-01-19T06:16:11.033Z,1.28
2023-01-19T06:18:22.985Z,1.30
2023-01-19T06:20:35.902Z,1.30
2023-01-19T06:22:48.203Z,1.32
2023-01-19T06:25:00.549Z,1.33
2023-01-19T06:27:13.948Z,1.33
2023-01-19T06:29:26.730Z,1.35
2023-01-19T06:31:40.701Z,1.42
2023-01-19T06:33:52.547Z,1.49
2023-01-19T06:36:06.743Z,1.51
2023-01-19T06:38:20.374Z,1.52
2023-01-19T06:40:32.659Z,1.51
2023-01-19T06:42:44.454Z,1.50
2023-01-19T06:44:57.203Z,1.52
2023-01-19T06:47:15.606Z,1.54
2023-01-19T06:49:28.327Z,1.56
2023-01-19T06:51:40.221Z,1.58
2023-01-19T06:53:51.947Z,1.59
2023-01-19T06:56:06.457Z,1.59
2023-01-19T06:58:19.581Z,1.58
2023-01-19T07:00:31.874Z,1.58
2023-01-19T07:02:44.813Z,1.58
2023-01-19T07:04:56.984Z,1.59
2023-01-19T07:07:08.988Z,1.59
2023-01-19T07:09:21.499Z,1.58
2023-01-19T07:11:33.898Z,1.58
2023-01-19T07:13:51.531Z,1.58
2023-01-19T07:16:07.366Z,1.58
2023-01-19T07:18:20.539Z,1.59
2023-01-19T07:20:33.447Z,1.59
2023-01-19T07:22:46.873Z,1.60
2023-01-19T07:24:59.282Z,1.59
2023-01-19T07:27:13.412Z,1.58
2023-01-19T07:29:25.941Z,1.58
2023-01-19T07:31:38.241Z,1.58
2023-01-19T07:33:50.233Z,1.57
2023-01-19T07:36:02.326Z,1.56
2023-01-19T07:38:15.959Z,1.56
2023-01-19T07:40:28.434Z,1.55
2023-01-19T07:42:40.256Z,1.55
2023-01-19T07:44:53.591Z,1.54
2023-01-19T07:47:07.731Z,1.54
2023-01-19T07:49:20.848Z,1.55
2023-01-19T07:51:33.047Z,1.56
2023-01-19T07:53:46.246Z,1.58
2023-01-19T07:55:58.776Z,1.60
2023-01-19T07:58:10.466Z,1.62
2023-01-19T08:00:25.472Z,1.63
2023-01-19T08:02:38.140Z,1.65
2023-01-19T08:04:50.277Z,1.67
2023-01-19T08:07:04.081Z,1.70
2023-01-19T08:09:16.184Z,1.71
2023-01-19T08:11:28.064Z,1.73
2023-01-19T08:13:40.167Z,1.75
2023-01-19T08:15:54.006Z,1.77
2023-01-19T08:18:07.017Z,1.77
2023-01-19T08:20:19.086Z,1.79
2023-01-19T08:22:31.456Z,1.80
2023-01-19T08:24:43.198Z,1.81
2023-01-19T08:27:02.777Z,1.82
2023-01-19T08:29:16.858Z,1.82
2023-01-19T08:31:30.743Z,1.82
2023-01-19T08:33:44.345Z,1.80
2023-01-19T08:35:55.982Z,1.80
2023-01-19T08:38:09.415Z,1.79
2023-01-19T08:40:21.181Z,1.77
2023-01-19T08:42:33.513Z,1.78
2023-01-19T08:44:57.399Z,1.78
2023-01-19T08:47:09.889Z,1.76
2023-01-19T08:49:22.190Z,1.74
2023-01-19T08:51:34.894Z,1.76
2023-01-19T08:53:47.101Z,1.78
2023-01-19T08:56:02.512Z,1.81
2023-01-19T08:58:14.246Z,1.83
2023-01-19T09:00:27.234Z,1.88
2023-01-19T09:02:38.817Z,1.93
2023-01-19T09:04:50.792Z,1.96
2023-01-19T09:07:02.398Z,2.01
2023-01-19T09:09:14.376Z,2.03
2023-01-19T09:11:27.703Z,2.05
2023-01-19T09:13:41.431Z,2.05
2023-01-19T09:15:53.964Z,2.05
2023-01-19T09:18:08.019Z,2.08
2023-01-19T09:20:20.030Z,2.10
2023-01-19T09:22:32.977Z,2.13
2023-01-19T09:24:44.863Z,2.18
2023-01-19T09:26:57.063Z,2.23
2023-01-19T09:29:09.074Z,2.27
2023-01-19T09:31:21.678Z,2.30
2023-01-19T09:33:34.852Z,2.30
2023-01-19T09:35:48.526Z,2.29
2023-01-19T09:38:00.974Z,2.30
2023-01-19T09:40:14.191Z,2.31
2023-01-19T09:42:32.127Z,2.31
2023-01-19T09:44:47.636Z,2.34
2023-01-19T09:47:03.957Z,2.37
2023-01-19T09:49:31.585Z,2.37
2023-01-19T09:51:50.700Z,2.36
2023-01-19T09:54:22.644Z,2.36
2023-01-19T09:56:34.587Z,2.35
2023-01-19T09:58:49.096Z,2.34
2023-01-19T10:01:22.802Z,2.36
2023-01-19T10:03:41.448Z,2.38
2023-01-19T10:06:03.898Z,2.39
2023-01-19T10:08:28.398Z,2.39
2023-01-19T10:10:45.601Z,2.39
2023-01-19T10:13:22.671Z,2.41
2023-01-19T10:16:02.656Z,2.43
2023-01-19T10:18:40.217Z,2.42
2023-01-19T10:21:05.550Z,2.36
2023-01-19T10:23:33.394Z,2.31
2023-01-19T10:25:46.261Z,2.31
2023-01-19T10:28:00.352Z,2.34
2023-01-19T10:30:22.916Z,2.34
2023-01-19T10:32:37.207Z,2.32
2023-01-19T10:34:50.871Z,2.28
2023-01-19T10:37:30.522Z,2.25
2023-01-19T10:39:43.029Z,2.21
2023-01-19T10:41:54.710Z,2.22
2023-01-19T10:44:09.998Z,2.21
2023-01-19T10:46:24.739Z,2.18
2023-01-19T10:48:42.272Z,2.13
2023-01-19T10:51:05.523Z,2.08
2023-01-19T10:53:22.644Z,1.99
2023-01-19T10:55:39.902Z,1.91
2023-01-19T10:57:53.661Z,1.85
2023-01-19T11:00:27.328Z,1.80
2023-01-19T11:02:50.615Z,1.80
2023-01-19T11:05:23.839Z,1.82
2023-01-19T11:07:35.850Z,1.81
2023-01-19T11:09:48.712Z,1.85
2023-01-19T11:12:00.557Z,1.85
2023-01-19T11:14:15.311Z,1.80
2023-01-19T11:16:34.853Z,1.80
2023-01-19T11:18:52.584Z,1.82
2023-01-19T11:21:07.333Z,1.82
2023-01-19T11:23:26.116Z,1.84
2023-01-19T11:25:39.323Z,1.89
2023-01-19T11:28:00.908Z,1.90
2023-01-19T11:30:25.759Z,1.88
2023-01-19T11:32:38.136Z,1.86
2023-01-19T11:34:50.610Z,1.90
2023-01-19T11:37:14.485Z,1.90
2023-01-19T11:39:29.648Z,1.89
2023-01-19T11:41:41.862Z,1.85
2023-01-19T11:44:00.457Z,1.80
2023-01-19T11:46:13.875Z,1.77
2023-01-19T11:48:45.219Z,1.74
2023-01-19T11:50:59.873Z,1.70
2023-01-19T11:53:25.658Z,1.67
2023-01-19T11:55:46.865Z,1.67
2023-01-19T11:57:59.650Z,1.67
2023-01-19T12:00:25.446Z,1.68
2023-01-19T12:02:47.016Z,1.67
2023-01-19T12:05:05.113Z,1.68
2023-01-19T12:07:25.638Z,1.70
2023-01-19T12:09:48.348Z,1.71
2023-01-19T12:12:06.593Z,1.74
2023-01-19T12:14:27.344Z,1.77
2023-01-19T12:16:41.518Z,1.78
2023-01-19T12:19:00.156Z,1.76
2023-01-19T12:21:12.126Z,1.71
2023-01-19T12:24:02.196Z,1.61
2023-01-19T12:26:53.223Z,1.53
2023-01-19T12:29:12.793Z,1.51
2023-01-19T12:31:25.191Z,1.51
2023-01-19T12:33:40.484Z,1.50
2023-01-19T12:36:03.961Z,1.48
2023-01-19T12:38:42.350Z,1.46
2023-01-19T12:41:14.081Z,1.46
2023-01-19T12:43:26.545Z,1.48
2023-01-19T12:45:40.037Z,1.52
2023-01-19T12:47:53.688Z,1.55
2023-01-19T12:50:14.091Z,1.58
2023-01-19T12:52:36.095Z,1.67
2023-01-19T12:55:02.129Z,1.74
2023-01-19T12:57:25.223Z,1.76
2023-01-19T12:59:39.043Z,1.76
2023-01-19T13:02:44.574Z,1.76
2023-01-19T13:05:16.890Z,1.72
2023-01-19T13:07:28.929Z,1.69
2023-01-19T13:09:42.778Z,1.64
2023-01-19T13:12:13.895Z,1.60
2023-01-19T13:14:37.551Z,1.56
2023-01-19T13:16:59.810Z,1.52
2023-01-19T13:19:12.984Z,1.52
2023-01-19T13:21:45.252Z,1.54
2023-01-19T13:24:00.067Z,1.50
2023-01-19T13:26:15.668Z,1.51
2023-01-19T13:28:40.951Z,1.51
2023-01-19T13:31:00.142Z,1.51
2023-01-19T13:33:21.441Z,1.49
2023-01-19T13:35:34.138Z,1.49
2023-01-19T13:37:46.647Z,1.47
2023-01-19T13:39:59.028Z,1.44
2023-01-19T13:42:30.842Z,1.44
2023-01-19T13:44:51.609Z,1.43
2023-01-19T13:47:04.764Z,1.39
2023-01-19T13:49:39.330Z,1.36
2023-01-19T13:52:20.155Z,1.32
2023-01-19T13:54:32.544Z,1.32
2023-01-19T13:56:50.594Z,1.33
2023-01-19T13:59:11.942Z,1.34
2023-01-19T14:01:24.003Z,1.32
2023-01-19T14:03:36.670Z,1.30
2023-01-19T14:05:52.153Z,1.32
2023-01-19T14:08:13.766Z,1.31
2023-01-19T14:10:26.005Z,1.28
2023-01-19T14:12:48.161Z,1.27
2023-01-19T14:15:15.487Z,1.24
2023-01-19T14:17:28.488Z,1.19
2023-01-19T14:19:58.657Z,1.15
2023-01-19T14:22:11.884Z,1.12
2023-01-19T14:24:25.532Z,1.15
2023-01-19T14:26:42.714Z,1.18
2023-01-19T14:28:56.579Z,1.19
2023-01-19T14:31:28.750Z,1.17
2023-01-19T14:33:45.596Z,1.11
2023-01-19T14:36:38.681Z,1.06
2023-01-19T14:38:52.293Z,0.98
2023-01-19T14:41:04.090Z,0.94
2023-01-19T14:43:16.073Z,0.90
2023-01-19T14:45:36.754Z,0.85
2023-01-19T14:48:01.580Z,0.81
2023-01-19T14:50:18.137Z,0.75
2023-01-19T14:52:40.947Z,0.70
2023-01-19T14:54:57.970Z,0.64
2023-01-19T14:57:15.086Z,0.59
2023-01-19T14:59:28.544Z,0.52
2023-01-19T15:01:44.898Z,0.47
2023-01-19T15:03:59.603Z,0.42
2023-01-19T15:06:22.188Z,0.38
2023-01-19T15:08:50.486Z,0.32
2023-01-19T15:11:13.007Z,0.27
2023-01-19T15:13:27.663Z,0.24
2023-01-19T15:15:45.372Z,0.24
2023-01-19T15:18:13.166Z,0.24
2023-01-19T15:20:25.443Z,0.22
2023-01-19T15:22:37.335Z,0.21
2023-01-19T15:24:50.149Z,0.19
2023-01-19T15:27:02.858Z,0.13
2023-01-19T15:29:22.119Z,0.10
2023-01-19T15:31:33.843Z,0.05
2023-01-19T15:33:46.425Z,0.00
2023-01-19T15:35:58.314Z,-0.01
2023-01-19T15:38:10.468Z,-0.02
2023-01-19T15:40:23.516Z,-0.06
2023-01-19T15:42:35.939Z,-0.08
2023-01-19T15:44:48.040Z,-0.10
2023-01-19T15:46:59.975Z,-0.14
2023-01-19T15:49:15.363Z,-0.19
2023-01-19T15:51:28.282Z,-0.24
2023-01-19T15:53:41.500Z,-0.28
2023-01-19T15:55:56.942Z,-0.31
2023-01-19T15:58:08.956Z,-0.34
2023-01-19T16:00:21.277Z,-0.37
2023-01-19T16:02:36.177Z,-0.38
2023-01-19T16:04:49.610Z,-0.40
2023-01-19T16:07:01.155Z,-0.43
2023-01-19T16:09:20.319Z,-0.44
2023-01-19T16:11:35.107Z,-0.46
2023-01-19T16:13:47.686Z,-0.47
2023-01-19T16:16:14.074Z,-0.49
2023-01-19T16:18:27.071Z,-0.51
2023-01-19T16:20:39.270Z,-0.54
2023-01-19T16:22:52.874Z,-0.57
2023-01-19T16:25:10.665Z,-0.59
2023-01-19T16:27:24.171Z,-0.64
2023-01-19T16:29:36.057Z,-0.70
2023-01-19T16:31:47.893Z,-0.74
2023-01-19T16:34:02.196Z,-0.74
2023-01-19T16:36:23.325Z,-0.75
2023-01-19T16:38:35.095Z,-0.75
2023-01-19T16:40:48.628Z,-0.78
2023-01-19T16:43:00.724Z,-0.81
2023-01-19T16:45:16.203Z,-0.82
2023-01-19T16:47:28.512Z,-0.83
2023-01-19T16:49:40.905Z,-0.85
2023-01-19T16:51:54.897Z,-0.89
2023-01-19T16:54:07.261Z,-0.94
2023-01-19T16:56:19.652Z,-0.99
2023-01-19T16:58:31.758Z,-1.02
2023-01-19T17:00:43.853Z,-1.01
2023-01-19T17:02:56.189Z,-0.99
2023-01-19T17:05:08.962Z,-0.98
2023-01-19T17:07:21.046Z,-1.00
2023-01-19T17:09:32.957Z,-1.04
2023-01-19T17:11:47.929Z,-1.09
2023-01-19T17:14:03.498Z,-1.13
2023-01-19T17:16:15.953Z,-1.15
2023-01-19T17:18:31.937Z,-1.14
2023-01-19T17:20:43.986Z,-1.13
2023-01-19T17:22:56.492Z,-1.11
2023-01-19T17:25:08.905Z,-1.08
2023-01-19T17:27:20.456Z,-1.08
2023-01-19T17:29:32.167Z,-1.10
2023-01-19T17:31:44.807Z,-1.14
2023-01-19T17:33:57.620Z,-1.16
2023-01-19T17:36:13.102Z,-1.18
2023-01-19T17:38:24.960Z,-1.20
2023-01-19T17:40:37.671Z,-1.20
2023-01-19T17:42:49.563Z,-1.20
2023-01-19T17:45:01.456Z,-1.19
2023-01-19T17:47:13.460Z,-1.17
2023-01-19T17:49:25.352Z,-1.16
2023-01-19T17:51:37.542Z,-1.13
2023-01-19T17:53:51.592Z,-1.12
2023-01-19T17:56:05.431Z,-1.10
2023-01-19T17:58:17.520Z,-1.11
2023-01-19T18:00:30.129Z,-1.11
2023-01-19T18:02:45.087Z,-1.10
2023-01-19T18:05:00.878Z,-1.10
2023-01-19T18:07:12.976Z,-1.10
2023-01-19T18:09:24.872Z,-1.10
2023-01-19T18:11:36.556Z,-1.09
2023-01-19T18:13:50.744Z,-1.10
2023-01-19T18:16:08.791Z,-1.10
2023-01-19T18:18:20.525Z,-1.11
2023-01-19T18:20:32.522Z,-1.13
2023-01-19T18:22:44.627Z,-1.15
2023-01-19T18:24:57.330Z,-1.16
2023-01-19T18:27:09.433Z,-1.18
2023-01-19T18:29:21.624Z,-1.21
2023-01-19T18:31:33.900Z,-1.22
2023-01-19T18:33:47.086Z,-1.23
2023-01-19T18:36:00.272Z,-1.25
2023-01-19T18:38:14.891Z,-1.27
2023-01-19T18:40:29.381Z,-1.28
2023-01-19T18:42:44.059Z,-1.30
2023-01-19T18:44:57.983Z,-1.31
2023-01-19T18:47:09.971Z,-1.31
2023-01-19T18:49:21.572Z,-1.31
2023-01-19T18:51:33.860Z,-1.32
2023-01-19T18:53:45.817Z,-1.33
2023-01-19T18:55:59.484Z,-1.34
2023-01-19T18:58:11.446Z,-1.34
2023-01-19T19:00:24.100Z,-1.36
2023-01-19T19:02:37.417Z,-1.40
2023-01-19T19:04:50.127Z,-1.45
2023-01-19T19:07:02.447Z,-1.49
2023-01-19T19:09:14.116Z,-1.52
2023-01-19T19:11:27.091Z,-1.56
2023-01-19T19:13:39.342Z,-1.58
2023-01-19T19:15:52.740Z,-1.63
2023-01-19T19:18:05.783Z,-1.66
2023-01-19T19:20:18.002Z,-1.68
2023-01-19T19:22:30.182Z,-1.68
2023-01-19T19:24:41.571Z,-1.70
2023-01-19T19:26:54.478Z,-1.72
2023-01-19T19:29:06.370Z,-1.73
2023-01-19T19:31:21.144Z,-1.72
2023-01-19T19:33:33.842Z,-1.72
2023-01-19T19:35:45.939Z,-1.71
2023-01-19T19:37:58.031Z,-1.68
2023-01-19T19:40:13.640Z,-1.67
2023-01-19T19:42:29.090Z,-1.68
2023-01-19T19:44:40.679Z,-1.70
2023-01-19T19:46:53.728Z,-1.70
2023-01-19T19:49:05.998Z,-1.73
2023-01-19T19:51:25.553Z,-1.76
2023-01-19T19:53:40.327Z,-1.77
2023-01-19T19:56:01.022Z,-1.78
2023-01-19T19:58:13.231Z,-1.82
2023-01-19T20:00:27.927Z,-1.87
2023-01-19T20:02:40.526Z,-1.93
2023-01-19T20:04:53.117Z,-1.98
2023-01-19T20:07:05.458Z,-2.02
2023-01-19T20:09:18.114Z,-2.02
2023-01-19T20:11:31.339Z,-2.00
2023-01-19T20:13:44.424Z,-2.00
2023-01-19T20:15:56.363Z,-2.00
2023-01-19T20:18:08.551Z,-1.99
2023-01-19T20:20:25.365Z,-1.98
2023-01-19T20:22:41.980Z,-1.98
2023-01-19T20:24:58.965Z,-2.00
2023-01-19T20:27:15.219Z,-2.01
2023-01-19T20:29:32.365Z,-2.02
2023-01-19T20:31:52.112Z,-2.03
2023-01-19T20:34:33.044Z,-2.04
2023-01-19T20:36:49.908Z,-2.05
2023-01-19T20:39:12.224Z,-2.05
2023-01-19T20:41:29.584Z,-2.05
2023-01-19T20:43:45.958Z,-2.06
2023-01-19T20:46:00.689Z,-2.05
2023-01-19T20:48:14.905Z,-2.08
2023-01-19T20:50:31.956Z,-2.10
2023-01-19T20:52:45.957Z,-2.13
2023-01-19T20:55:00.178Z,-2.15
2023-01-19T20:57:16.139Z,-2.19
2023-01-19T20:59:32.871Z,-2.20
2023-01-19T21:01:47.966Z,-2.21
2023-01-19T21:04:04.128Z,-2.19
2023-01-19T21:06:23.976Z,-2.19
2023-01-19T21:08:41.059Z,-2.18
2023-01-19T21:10:58.260Z,-2.18
2023-01-19T21:13:15.400Z,-2.20
2023-01-19T21:15:30.479Z,-2.24
2023-01-19T21:17:47.329Z,-2.29
2023-01-19T21:20:19.742Z,-2.34
2023-01-19T21:23:11.496Z,-2.40
2023-01-19T21:25:28.038Z,-2.42
2023-01-19T21:27:45.182Z,-2.45
2023-01-19T21:30:03.520Z,-2.47
2023-01-19T21:32:18.033Z,-2.49
2023-01-19T21:34:35.268Z,-2.51
2023-01-19T21:36:50.226Z,-2.55
2023-01-19T21:39:07.315Z,-2.58
2023-01-19T21:41:24.691Z,-2.61
2023-01-19T21:43:42.960Z,-2.60
2023-01-19T21:46:11.211Z,-2.60
2023-01-19T21:48:26.265Z,-2.60
2023-01-19T21:50:43.516Z,-2.63
2023-01-19T21:53:00.547Z,-2.66
2023-01-19T21:55:14.647Z,-2.69
2023-01-19T21:57:26.848Z,-2.74
2023-01-19T21:59:41.023Z,-2.76
2023-01-19T22:01:52.908Z,-2.79
2023-01-19T22:04:06.416Z,-2.82
2023-01-19T22:06:18.410Z,-2.82
2023-01-19T22:08:30.416Z,-2.81
2023-01-19T22:10:42.092Z,-2.75
2023-01-19T22:12:53.742Z,-2.66
2023-01-19T22:15:06.800Z,-2.59
2023-01-19T22:17:18.694Z,-2.52
2023-01-19T22:19:30.791Z,-2.50
2023-01-19T22:21:42.580Z,-2.52
2023-01-19T22:23:56.697Z,-2.52
2023-01-19T22:26:10.747Z,-2.52
2023-01-19T22:28:22.791Z,-2.58
2023-01-19T22:30:35.101Z,-2.59
2023-01-19T22:32:47.749Z,-2.60
2023-01-19T22:35:00.089Z,-2.60
2023-01-19T22:37:13.924Z,-2.58
2023-01-19T22:39:26.113Z,-2.55
2023-01-19T22:41:45.316Z,-2.53
2023-01-19T22:44:05.462Z,-2.50
2023-01-19T22:46:20.669Z,-2.49
2023-01-19T22:48:32.625Z,-2.49
2023-01-19T22:50:46.415Z,-2.49
2023-01-19T22:52:59.181Z,-2.48
2023-01-19T22:55:11.731Z,-2.51
2023-01-19T22:57:25.008Z,-2.52
2023-01-19T22:59:36.900Z,-2.58
2023-01-19T23:01:49.687Z,-2.65
2023-01-19T23:04:04.312Z,-2.67
2023-01-19T23:06:22.005Z,-2.67
2023-01-19T23:08:34.571Z,-2.67
2023-01-19T23:10:46.805Z,-2.66
2023-01-19T23:12:58.323Z,-2.63
2023-01-19T23:15:10.736Z,-2.61
2023-01-19T23:17:22.516Z,-2.59
2023-01-19T23:19:34.477Z,-2.57
2023-01-19T23:21:46.587Z,-2.55
2023-01-19T23:24:01.363Z,-2.54
2023-01-19T23:26:16.400Z,-2.58
2023-01-19T23:28:28.293Z,-2.62
2023-01-19T23:30:40.469Z,-2.67
2023-01-19T23:32:52.487Z,-2.68
2023-01-19T23:35:04.490Z,-2.65
2023-01-19T23:37:16.583Z,-2.64
2023-01-19T23:39:28.574Z,-2.62
2023-01-19T23:41:40.263Z,-2.63
2023-01-19T23:43:52.769Z,-2.63
2023-01-19T23:46:05.964Z,-2.64
2023-01-19T23:48:17.986Z,-2.64
2023-01-19T23:50:30.195Z,-2.67
2023-01-19T23:52:42.490Z,-2.70
2023-01-19T23:54:54.075Z,-2.72
2023-01-19T23:57:06.479Z,-2.71
2023-01-19T23:59:18.267Z,-2.72
